createdAt,value
2022-11-16T00:01:03.126Z,31.40
2022-11-16T00:05:23.123Z,25.67
2022-11-16T00:09:44.318Z,24.17
2022-11-16T00:14:01.566Z,28.33
2022-11-16T00:18:18.757Z,22.40
2022-11-16T00:22:35.991Z,26.15
2022-11-16T00:26:54.833Z,23.02
2022-11-16T00:31:12.113Z,21.77
2022-11-16T00:35:29.374Z,19.65
2022-11-16T00:39:46.598Z,25.25
2022-11-16T00:44:03.888Z,21.13
2022-11-16T00:48:21.376Z,24.38
2022-11-16T00:52:38.635Z,23.67
2022-11-16T00:56:55.797Z,25.98
2022-11-16T01:01:13.761Z,25.38
2022-11-16T01:05:31.424Z,27.83
2022-11-16T01:09:48.644Z,25.63
2022-11-16T01:14:09.219Z,23.70
2022-11-16T01:18:26.357Z,23.58
2022-11-16T01:22:43.935Z,20.10
2022-11-16T01:27:01.227Z,24.17
2022-11-16T01:31:18.522Z,23.42
2022-11-16T01:35:35.710Z,20.77
2022-11-16T01:39:52.979Z,20.70
2022-11-16T01:44:33.991Z,19.83
2022-11-16T01:48:59.874Z,20.88
2022-11-16T01:53:17.570Z,20.30
2022-11-16T01:57:39.888Z,20.57
2022-11-16T02:02:00.001Z,17.33
2022-11-16T02:06:42.156Z,20.25
2022-11-16T02:11:23.446Z,18.35
2022-11-16T02:15:45.278Z,16.80
2022-11-16T02:20:39.276Z,18.23
2022-11-16T02:25:17.198Z,18.85
2022-11-16T02:29:45.828Z,18.60
2022-11-16T02:34:05.662Z,18.88
2022-11-16T02:38:27.671Z,18.73
2022-11-16T02:42:56.107Z,20.27
2022-11-16T02:47:19.559Z,23.92
2022-11-16T02:51:38.262Z,27.95
2022-11-16T02:55:56.383Z,30.13
2022-11-16T03:05:16.111Z,29.77
2022-11-16T03:09:36.721Z,34.88
2022-11-16T03:14:06.555Z,31.20
2022-11-16T03:18:26.967Z,35.25
2022-11-16T03:22:47.212Z,31.65
2022-11-16T03:27:24.722Z,33.08
2022-11-16T03:31:48.718Z,31.10
2022-11-16T03:36:13.047Z,24.15
2022-11-16T03:40:33.538Z,26.92
2022-11-16T03:44:51.711Z,24.70
2022-11-16T03:49:09.053Z,24.90
2022-11-16T03:53:26.244Z,27.98
2022-11-16T03:57:43.707Z,21.70
2022-11-16T04:02:00.918Z,22.95
2022-11-16T04:06:36.950Z,25.00
2022-11-16T04:11:13.012Z,22.45
2022-11-16T04:15:48.811Z,26.13
2022-11-16T04:20:24.738Z,26.60
2022-11-16T04:24:45.616Z,28.88
2022-11-16T04:29:02.821Z,22.92
2022-11-16T04:33:38.867Z,27.92
2022-11-16T04:37:58.314Z,25.52
2022-11-16T04:42:22.269Z,25.25
2022-11-16T04:46:58.287Z,25.80
2022-11-16T04:51:15.444Z,25.90
2022-11-16T04:55:33.244Z,23.08
2022-11-16T04:59:50.411Z,20.30
2022-11-16T05:04:07.599Z,21.30
2022-11-16T05:08:25.507Z,21.65
2022-11-16T05:12:42.857Z,21.47
2022-11-16T05:17:00.043Z,22.02
2022-11-16T05:21:17.214Z,24.58
2022-11-16T05:25:37.015Z,21.65
2022-11-16T05:29:55.120Z,18.98
2022-11-16T05:34:12.646Z,25.17
2022-11-16T05:38:29.849Z,19.15
2022-11-16T05:42:47.117Z,18.15
2022-11-16T05:47:04.614Z,18.92
2022-11-16T05:51:21.850Z,20.95
2022-11-16T05:55:39.119Z,19.92
2022-11-16T05:59:56.286Z,19.13
2022-11-16T06:04:14.259Z,19.00
2022-11-16T06:08:32.122Z,21.33
2022-11-16T06:12:49.471Z,25.50
2022-11-16T06:17:06.654Z,21.40
2022-11-16T06:21:23.954Z,19.85
2022-11-16T06:25:41.378Z,25.13
2022-11-16T06:29:58.621Z,25.00
2022-11-16T06:34:15.979Z,18.55
2022-11-16T06:38:33.631Z,21.75
2022-11-16T06:42:51.213Z,17.50
2022-11-16T06:47:08.408Z,18.10
2022-11-16T06:51:26.070Z,14.23
2022-11-16T06:55:43.398Z,15.38
2022-11-16T07:00:01.005Z,22.83
2022-11-16T07:04:18.313Z,17.08
2022-11-16T07:08:36.381Z,18.42
2022-11-16T07:12:53.787Z,17.02
2022-11-16T07:17:11.391Z,19.27
2022-11-16T07:21:29.181Z,15.05
2022-11-16T07:25:47.256Z,16.20
2022-11-16T07:30:05.582Z,13.30
2022-11-16T07:34:22.834Z,12.82
2022-11-16T07:38:40.182Z,12.82
2022-11-16T07:42:58.591Z,13.02
2022-11-16T07:47:15.784Z,12.88
2022-11-16T07:51:33.172Z,13.40
2022-11-16T07:55:54.395Z,13.95
2022-11-16T08:00:12.019Z,14.07
2022-11-16T08:04:29.208Z,14.25
2022-11-16T08:08:46.399Z,13.25
2022-11-16T08:13:04.075Z,16.27
2022-11-16T08:17:21.315Z,13.73
2022-11-16T08:21:38.765Z,13.20
2022-11-16T08:26:07.778Z,11.10
2022-11-16T08:30:24.972Z,11.40
2022-11-16T08:34:42.189Z,12.00
2022-11-16T08:38:59.374Z,12.40
2022-11-16T08:43:16.549Z,11.23
2022-11-16T08:47:33.844Z,9.98
2022-11-16T08:51:51.053Z,13.25
2022-11-16T08:56:12.452Z,13.75
2022-11-16T09:00:29.715Z,12.13
2022-11-16T09:04:47.117Z,14.50
2022-11-16T09:09:04.968Z,13.88
2022-11-16T09:13:22.155Z,16.30
2022-11-16T09:17:39.355Z,17.23
2022-11-16T09:21:56.626Z,15.40
2022-11-16T09:26:14.486Z,15.85
2022-11-16T09:30:31.757Z,18.73
2022-11-16T09:34:49.258Z,15.52
2022-11-16T09:44:02.587Z,26.33
2022-11-16T09:48:21.786Z,14.23
2022-11-16T09:52:44.441Z,21.88
2022-11-16T09:57:12.068Z,18.58
2022-11-16T10:01:47.788Z,18.77
2022-11-16T10:06:16.662Z,17.52
2022-11-16T10:10:38.404Z,17.60
2022-11-16T10:15:32.400Z,17.00
2022-11-16T10:20:34.206Z,21.27
2022-11-16T10:24:59.535Z,23.20
2022-11-16T10:29:43.293Z,21.15
2022-11-16T10:34:02.398Z,23.05
2022-11-16T10:38:24.223Z,25.88
2022-11-16T10:42:41.471Z,23.05
2022-11-16T10:47:05.984Z,25.83
2022-11-16T10:51:23.409Z,37.40
2022-11-16T10:55:40.641Z,21.85
2022-11-16T10:59:59.073Z,25.92
2022-11-16T11:04:31.593Z,24.42
2022-11-16T11:08:48.851Z,26.02
2022-11-16T11:13:11.902Z,31.40
2022-11-16T11:17:30.624Z,36.78
2022-11-16T11:26:05.658Z,16.38
2022-11-16T11:30:23.118Z,20.52
2022-11-16T11:34:47.216Z,54.22
2022-11-16T11:39:13.587Z,20.92
2022-11-16T11:43:33.551Z,48.97
2022-11-16T11:48:01.719Z,70.30
2022-11-16T11:52:29.655Z,19.55
2022-11-16T11:56:46.840Z,23.83
2022-11-16T12:01:25.932Z,32.83
2022-11-16T12:06:06.833Z,35.50
2022-11-16T12:10:30.130Z,31.70
2022-11-16T12:15:00.070Z,35.20
2022-11-16T12:19:25.812Z,36.03
2022-11-16T12:23:55.518Z,44.35
2022-11-16T12:28:21.495Z,101.07
2022-11-16T12:33:03.378Z,47.00
2022-11-16T12:37:29.735Z,41.85
2022-11-16T12:42:03.868Z,35.03
2022-11-16T12:46:38.209Z,42.65
2022-11-16T12:51:18.308Z,39.40
2022-11-16T12:55:59.178Z,39.85
2022-11-16T13:00:18.917Z,43.20
2022-11-16T13:04:47.317Z,42.35
2022-11-16T13:09:15.571Z,40.47
2022-11-16T13:13:36.666Z,37.93
2022-11-16T13:18:01.674Z,39.85
2022-11-16T13:22:24.211Z,58.97
2022-11-16T13:26:54.394Z,48.97
2022-11-16T13:31:19.812Z,42.92
2022-11-16T13:35:38.462Z,97.63
2022-11-16T13:39:58.416Z,59.45
2022-11-16T13:44:20.148Z,105.90
2022-11-16T13:48:44.320Z,67.03
2022-11-16T13:53:57.746Z,82.50
2022-11-16T13:57:54.746Z,32.22
2022-11-16T14:02:39.393Z,30.08
2022-11-16T14:06:58.865Z,48.67
2022-11-16T14:11:39.269Z,55.63
2022-11-16T14:16:15.102Z,105.25
2022-11-16T14:21:04.886Z,71.15
2022-11-16T14:25:33.657Z,71.13
2022-11-16T14:29:56.783Z,31.95
2022-11-16T14:34:21.476Z,42.42
2022-11-16T14:38:41.901Z,45.88
2022-11-16T14:43:21.531Z,52.78
2022-11-16T14:47:39.630Z,37.17
2022-11-16T14:51:59.839Z,128.30
2022-11-16T14:56:19.123Z,47.03
2022-11-16T15:00:38.323Z,73.32
2022-11-16T15:04:55.852Z,49.38
2022-11-16T15:09:32.571Z,51.47
2022-11-16T15:13:50.662Z,32.10
2022-11-16T15:18:14.877Z,36.55
2022-11-16T15:22:39.659Z,54.85
2022-11-16T15:27:08.232Z,53.40
2022-11-16T15:31:25.875Z,86.53
2022-11-16T15:35:43.709Z,88.05
2022-11-16T15:40:03.307Z,73.85
2022-11-16T15:44:24.488Z,62.03
2022-11-16T15:48:43.452Z,103.93
2022-11-16T15:53:01.017Z,70.20
2022-11-16T15:57:20.001Z,65.43
2022-11-16T16:01:45.120Z,50.80
2022-11-16T16:06:04.424Z,53.42
2022-11-16T16:10:24.595Z,71.60
2022-11-16T16:14:42.821Z,67.45
2022-11-16T16:19:09.262Z,34.40
2022-11-16T16:23:30.221Z,45.45
2022-11-16T16:27:48.696Z,22.95
2022-11-16T16:32:08.443Z,59.10
2022-11-16T16:36:25.950Z,41.55
2022-11-16T16:40:43.508Z,39.88
2022-11-16T16:45:02.246Z,43.65
2022-11-16T16:49:19.734Z,73.85
2022-11-16T16:53:37.470Z,55.70
2022-11-16T16:57:57.510Z,34.22
2022-11-16T17:02:16.245Z,42.15
2022-11-16T17:10:51.120Z,49.72
2022-11-16T17:15:09.637Z,34.95
2022-11-16T17:19:28.370Z,35.22
2022-11-16T17:28:03.204Z,60.22
2022-11-16T17:32:21.741Z,54.20
2022-11-16T17:36:39.325Z,68.90
2022-11-16T17:41:14.875Z,28.67
2022-11-16T17:45:32.230Z,33.35
2022-11-16T17:49:49.783Z,45.92
2022-11-16T17:54:07.136Z,42.00
2022-11-16T17:58:25.715Z,47.47
2022-11-16T18:02:43.156Z,38.15
2022-11-16T18:07:01.286Z,27.92
2022-11-16T18:11:24.423Z,24.33
2022-11-16T18:15:42.648Z,27.25
2022-11-16T18:20:00.230Z,27.98
2022-11-16T18:24:17.698Z,25.20
2022-11-16T18:28:35.059Z,27.98
2022-11-16T18:32:52.290Z,25.98
2022-11-16T18:37:09.549Z,25.08
2022-11-16T18:41:28.963Z,32.55
2022-11-16T18:45:46.205Z,37.47
2022-11-16T18:50:06.094Z,39.17
2022-11-16T18:54:23.275Z,50.72
2022-11-16T18:58:50.814Z,45.90
2022-11-16T19:03:11.254Z,45.00
2022-11-16T19:07:28.969Z,49.15
2022-11-16T19:11:46.487Z,56.08
2022-11-16T19:16:04.001Z,83.88
2022-11-16T19:20:21.333Z,44.70
2022-11-16T19:24:38.613Z,28.60
2022-11-16T19:28:55.987Z,43.17
2022-11-16T19:33:14.835Z,37.85
2022-11-16T19:37:32.121Z,60.45
2022-11-16T19:41:49.354Z,61.67
2022-11-16T19:46:12.227Z,59.20
2022-11-16T19:50:29.486Z,90.03
2022-11-16T19:54:46.794Z,114.15
2022-11-16T19:59:04.074Z,50.50
2022-11-16T20:03:21.250Z,44.13
2022-11-16T20:07:38.806Z,42.65
2022-11-16T20:11:56.828Z,38.10
2022-11-16T20:16:15.865Z,25.80
2022-11-16T20:20:33.046Z,25.75
2022-11-16T20:24:50.300Z,27.73
2022-11-16T20:29:07.579Z,35.95
2022-11-16T20:33:24.906Z,29.45
2022-11-16T20:37:43.358Z,31.88
2022-11-16T20:42:00.593Z,28.98
2022-11-16T20:46:19.079Z,27.30
2022-11-16T20:50:36.340Z,26.02
2022-11-16T20:54:53.838Z,30.90
2022-11-16T20:59:11.062Z,28.73
2022-11-16T21:03:28.995Z,28.40
2022-11-16T21:07:46.383Z,30.03
2022-11-16T21:12:22.395Z,37.00
2022-11-16T21:16:40.110Z,37.58
2022-11-16T21:21:04.110Z,53.22
2022-11-16T21:25:21.282Z,59.90
2022-11-16T21:29:38.558Z,54.28
2022-11-16T21:33:56.658Z,56.50
2022-11-16T21:38:13.835Z,61.75
2022-11-16T21:42:31.236Z,54.20
2022-11-16T21:46:48.431Z,60.42
2022-11-16T21:51:13.034Z,52.70
2022-11-16T21:55:30.421Z,62.88
2022-11-16T21:59:47.594Z,55.58
2022-11-16T22:04:43.523Z,54.20
2022-11-16T22:09:01.637Z,56.08
2022-11-16T22:13:19.917Z,78.15
2022-11-16T22:17:41.159Z,72.18
2022-11-16T22:21:59.421Z,51.72
2022-11-16T22:26:16.766Z,56.00
2022-11-16T22:30:34.087Z,61.67
2022-11-16T22:34:51.437Z,53.20
2022-11-16T22:39:08.622Z,61.33
2022-11-16T22:43:29.660Z,107.65
2022-11-16T22:47:49.700Z,100.63
2022-11-16T22:52:10.816Z,78.82
2022-11-16T22:56:29.493Z,81.45
2022-11-16T23:05:04.018Z,91.85
2022-11-16T23:09:21.256Z,87.80
2022-11-16T23:13:57.237Z,135.00
2022-11-16T23:18:14.858Z,93.35
2022-11-16T23:22:50.797Z,117.25
2022-11-16T23:27:28.588Z,94.32
2022-11-16T23:31:45.855Z,186.40
2022-11-16T23:36:03.161Z,225.88
2022-11-16T23:40:21.790Z,148.27
2022-11-16T23:48:56.900Z,241.23
2022-11-16T23:53:14.515Z,113.05
2022-11-16T23:57:31.703Z,199.05
